Soaring Guidance
Issued by NWS Reno, NV

Home | Current Version | Previous Version | Text Only | Print | Product List | Glossary On
Versions: 1 2 3 4 5 6 7
000
UXUS97 KREV 261452
SRGREV

SOARING FORECAST
NATIONAL WEATHER SERVICE - RENO NV
700 AM PST SUN FEB 26 2017

THIS SOARING FORECAST IS FOR THE EASTERN SIERRA AND WESTERN NEVADA
WITH SPECIFIC INDICES FOR THE GREATER RENO AREA.

THIS FORECAST IS PREPARED DAILY BY 700 AM AND IS NOT UPDATED.

FOR CURRENT FLIGHT CONDITIONS...FORECASTS...AND ADVISORIES...ACCESS
YOUR LOCAL BRIEFING OUTLET OR FLIGHT SERVICE STATION.

*******************************************************************
FORECASTED LOCAL INDICES FOR RENO:        TODAY     YESTERDAY
FORECASTED MAX TEMP AT RENO (DEG F).....     42          38
FORECASTED TRIGGER TEMPERATURE (DEG F)..     35          30
   EXCEEDED YESTERDAY BY 1055 AM PST
FORECASTED MAXIMUM ALTITUDE (FT MSL)....  11900       13500
FORECASTED SOARING INDEX (FPM)..........    537         735
FORECASTED K-INDEX.........VALID 18Z....     -5          18
FORECASTED K-INDEX.........VALID 00Z....      6          17
FORECASTED LIFTED INDEX....VALID 18Z....      7           2
FORECASTED LIFTED INDEX....VALID 00Z....      7           1

AFTERNOON WINDS ALOFT FORECAST
MSL (FT) WIND/TEMP
9000  2432/-10
10000 2435/-11
12000 2640/-13
14000 2643/-16
16000 2647/-19
18000 2658/-23
24000 2665/-35
30000 2676/-50
34000 2681/-58
39000 2667/-60

SLIDE MOUNTAIN DATA:
     DATE       TIME     TEMP  DEWPT   RH         WIND (MPH)
                        (F)   (F)           | DIR  SPEED GUST
2017-02-26    05:20       9     7     90    | 339    0    1
2017-02-26    05:00       9     7     90    | 339    0    1
2017-02-26    04:50       9     8     90    | 339    0    1
2017-02-26    04:30      10     8     90    | 339    0    1

RENO TAF FORECAST:
KRNO 261139Z 2612/2712 VRB03KT P6SM SCT050
     FM261900 21015G25KT P6SM FEW070 BKN200
     FM262200 23022G36KT P6SM SCT050 BKN100
     FM270200 23015G28KT P6SM BKN050 OVC080
     FM270800 23011G20KT 3SM -SHSN BKN025 OVC035

CARSON CITY TAF FORECAST:
KCXP 261139Z 2612/2712 VRB03KT P6SM SCT050
     FM261900 23011G18KT P6SM FEW060 BKN200
     FM262200 23015G28KT P6SM SCT040 BKN090
     FM270200 23011G20KT P6SM BKN040 OVC070
     FM270800 23010G18KT 3SM -SHSN BKN020 OVC030

OUTLOOK FOR THE RENO-CARSON CITY-MINDEN AREA:
.MONDAY...SNOW SHOWERS LIKELY IN THE MORNING, THEN CHANCE OF SNOW
SHOWERS IN THE AFTERNOON. SNOW ACCUMULATION UP TO 1 INCH. HIGHS
36 TO 41. WEST WINDS 10 TO 15 MPH. GUSTS UP TO 30 MPH IN THE
MORNING.

SUNRISE AND SUNSET
FEBRUARY 26 2017......SUNRISE   636 AM PST   SUNSET   549 PM PST
FEBRUARY 27 2017......SUNRISE   634 AM PST   SUNSET   550 PM PST



USA.gov is the U.S. government's official web portal to all federal, state and local government web resources and services.